Time;durP1;ratioP1;P1;durP2;ratioP2;P2;SDS_P1;SDS_P2;PMS_P1;PMS_P2;Temp;Humidity;BMP_temperature;BMP_pressure;BME280_temperature;BME280_humidity;BME280_pressure;Samples;Min_cycle;Max_cycle;Signal;HPM_P1;HPM_P2
2021/09/06 00:01:29;;;;;;;10.30;3.50;;;;;;;13.44;47.45;102169.17;1678310;85;20898;-81
2021/09/06 00:03:57;;;;;;;8.68;3.27;;;;;;;13.44;47.44;102167.02;1678002;85;21186;-85
2021/09/06 00:06:25;;;;;;;4.83;3.55;;;;;;;13.43;47.49;102168.81;1677833;85;20946;-84
2021/09/06 00:08:53;;;;;;;6.62;3.55;;;;;;;13.44;47.51;102173.08;1678119;84;21006;-80
2021/09/06 00:11:21;;;;;;;5.37;2.90;;;;;;;13.45;47.48;102168.72;1678012;85;21025;-82
2021/09/06 00:13:51;;;;;;;6.03;3.27;;;;;;;13.45;47.48;102169.56;1678205;84;21445;-87
2021/09/06 00:16:18;;;;;;;5.45;3.00;;;;;;;13.45;47.50;102165.65;1677915;85;21091;-88
2021/09/06 00:18:46;;;;;;;6.53;3.35;;;;;;;13.44;47.52;102168.33;1677905;85;20934;-82
2021/09/06 00:21:14;;;;;;;7.12;3.08;;;;;;;13.43;47.59;102169.27;1678267;85;20986;-86
2021/09/06 00:23:42;;;;;;;5.50;2.98;;;;;;;13.43;47.62;102175.79;1677963;84;21021;-86
2021/09/06 00:26:08;;;;;;;6.78;3.15;;;;;;;13.41;47.74;102175.86;1678239;85;21012;-91
2021/09/06 00:28:37;;;;;;;7.55;2.98;;;;;;;13.39;47.77;102173.80;1678396;84;20931;-85
2021/09/06 00:31:05;;;;;;;9.78;3.35;;;;;;;13.39;47.77;102178.17;1677981;85;21002;-85
2021/09/06 00:33:35;;;;;;;7.22;2.95;;;;;;;13.38;47.79;102179.94;1678136;84;21528;-84
2021/09/06 00:36:03;;;;;;;4.60;3.45;;;;;;;13.37;47.88;102183.45;1678006;85;21595;-83
2021/09/06 00:38:31;;;;;;;6.37;2.98;;;;;;;13.37;47.96;102183.45;1678056;84;20985;-84
2021/09/06 00:40:58;;;;;;;7.25;3.42;;;;;;;13.38;47.97;102180.39;1678115;84;21136;-88
2021/09/06 00:43:26;;;;;;;5.22;2.80;;;;;;;13.38;47.95;102185.16;1655020;85;20934;-82
2021/09/06 00:45:56;;;;;;;7.60;3.50;;;;;;;13.40;47.99;102185.08;1677896;84;21544;-81
2021/09/06 00:48:25;;;;;;;7.03;3.35;;;;;;;13.42;47.74;102187.13;1678351;84;21607;-83
2021/09/06 00:50:52;;;;;;;5.45;3.02;;;;;;;13.46;47.71;102182.98;1678885;85;21094;-89
2021/09/06 00:53:18;;;;;;;5.92;3.22;;;;;;;13.50;47.71;102185.79;1654316;85;21159;-83
2021/09/06 00:55:46;;;;;;;5.12;2.95;;;;;;;13.52;47.79;102187.02;1655703;85;20939;-86
2021/09/06 00:58:14;;;;;;;5.65;2.83;;;;;;;13.54;47.73;102179.49;1678109;85;20997;-85
2021/09/06 01:00:41;;;;;;;4.83;2.80;;;;;;;13.57;47.52;102186.30;1677871;85;21615;-85
2021/09/06 01:03:09;;;;;;;8.73;3.15;;;;;;;13.59;47.52;102186.59;1677856;85;20958;-84
2021/09/06 01:05:37;;;;;;;4.78;3.17;;;;;;;13.60;47.58;102186.98;1678090;85;22006;-90
2021/09/06 01:08:08;;;;;;;5.30;2.77;;;;;;;13.62;47.49;102192.98;1648204;85;21437;-83
2021/09/06 01:10:41;;;;;;;7.58;3.40;;;;;;;13.62;47.49;102192.13;1674673;85;21489;-84
2021/09/06 01:13:11;;;;;;;4.50;2.90;;;;;;;13.60;47.47;102191.34;1660090;85;21081;-86
2021/09/06 01:15:38;;;;;;;6.05;3.08;;;;;;;13.58;47.55;102190.14;1678011;84;21052;-89
2021/09/06 01:18:07;;;;;;;7.08;3.20;;;;;;;13.56;47.68;102197.68;1678044;84;20879;-82
2021/09/06 01:20:35;;;;;;;5.83;3.60;;;;;;;13.53;47.66;102195.23;1654907;85;21005;-88
2021/09/06 01:23:02;;;;;;;5.72;3.00;;;;;;;13.48;47.76;102195.93;1677858;85;20984;-86
2021/09/06 01:25:31;;;;;;;6.42;3.12;;;;;;;13.44;47.86;102195.70;1674256;85;21159;-81
2021/09/06 01:27:59;;;;;;;5.50;3.12;;;;;;;13.40;47.98;102193.72;1632580;85;20938;-84
2021/09/06 01:30:28;;;;;;;6.87;3.12;;;;;;;13.36;48.06;102200.50;1654896;85;21155;-89
2021/09/06 01:32:56;;;;;;;3.80;2.92;;;;;;;13.32;48.18;102195.91;1678098;85;21529;-86
2021/09/06 01:35:23;;;;;;;3.90;3.12;;;;;;;13.28;48.29;102200.90;1677961;84;20941;-83
2021/09/06 01:37:52;;;;;;;5.83;3.52;;;;;;;13.24;48.47;102200.70;1677610;85;21086;-83
2021/09/06 01:40:20;;;;;;;5.25;3.20;;;;;;;13.21;48.67;102201.68;1678144;85;21619;-85
2021/09/06 01:42:47;;;;;;;4.30;2.85;;;;;;;13.19;48.69;102200.08;1673798;83;21906;-83
2021/09/06 01:45:14;;;;;;;5.45;3.37;;;;;;;13.15;48.80;102200.70;1673513;85;20950;-90
2021/09/06 01:47:42;;;;;;;6.22;3.90;;;;;;;13.11;48.80;102199.17;1673522;85;20990;-85
2021/09/06 01:50:10;;;;;;;6.87;3.80;;;;;;;13.07;48.96;102198.09;1673679;85;20985;-85
2021/09/06 01:52:38;;;;;;;5.92;3.65;;;;;;;13.02;49.15;102200.07;1671871;85;20957;-85
2021/09/06 01:55:07;;;;;;;4.87;3.22;;;;;;;12.97;49.25;102206.00;1673365;85;21523;-84
2021/09/06 01:57:35;;;;;;;7.95;3.40;;;;;;;12.93;49.39;102205.77;1673615;85;21003;-87
2021/09/06 02:00:06;;;;;;;6.33;3.60;;;;;;;12.89;49.51;102202.95;1673511;85;20950;-85
2021/09/06 02:02:34;;;;;;;4.58;3.17;;;;;;;12.86;49.63;102205.72;1672849;85;20995;-86
2021/09/06 02:05:02;;;;;;;7.45;3.08;;;;;;;12.81;49.73;102208.55;1673675;85;21036;-83
2021/09/06 02:07:31;;;;;;;8.70;3.08;;;;;;;12.81;49.78;102207.70;1673497;85;21185;-83
2021/09/06 02:09:58;;;;;;;8.28;3.85;;;;;;;12.79;49.86;102204.34;1651929;85;20879;-85
2021/09/06 02:12:25;;;;;;;6.75;3.70;;;;;;;12.76;49.89;102205.80;1673742;85;20941;-86
2021/09/06 02:14:52;;;;;;;7.90;3.90;;;;;;;12.73;50.00;102208.92;1673533;85;21030;-82
2021/09/06 02:17:22;;;;;;;5.58;3.58;;;;;;;12.72;50.03;102213.77;1673940;85;21009;-85
2021/09/06 02:19:50;;;;;;;6.53;4.08;;;;;;;12.71;50.09;102212.08;1673813;85;21182;-86
2021/09/06 02:22:17;;;;;;;7.35;4.15;;;;;;;12.70;50.24;102212.98;1673260;85;21085;-83
2021/09/06 02:24:57;;;;;;;8.80;4.35;;;;;;;12.70;50.28;102215.59;1673018;85;20899;-84
2021/09/06 02:27:29;;;;;;;7.58;4.00;;;;;;;12.71;50.23;102220.34;1673043;85;20939;-86
2021/09/06 02:29:57;;;;;;;5.78;3.85;;;;;;;12.70;50.23;102220.80;1673499;85;20887;-84
2021/09/06 02:32:26;;;;;;;7.75;3.80;;;;;;;12.70;50.17;102223.41;1673607;85;21160;-86
2021/09/06 02:34:58;;;;;;;6.72;3.80;;;;;;;12.71;50.24;102217.28;1672959;85;20994;-84
2021/09/06 02:37:25;;;;;;;7.25;4.05;;;;;;;12.73;50.20;102218.52;1673528;85;20939;-84
2021/09/06 02:39:52;;;;;;;4.67;3.52;;;;;;;12.73;50.11;102223.25;1673399;85;20954;-83
2021/09/06 02:42:20;;;;;;;9.58;3.90;;;;;;;12.74;50.16;102221.49;1675784;83;21532;-85
2021/09/06 02:44:48;;;;;;;5.58;3.85;;;;;;;12.74;50.11;102223.64;1678030;84;21470;-85
2021/09/06 02:47:15;;;;;;;9.45;4.40;;;;;;;12.76;50.03;102224.03;1677826;85;20995;-83
2021/09/06 02:49:41;;;;;;;7.90;4.40;;;;;;;12.78;50.04;102231.30;1678045;85;21494;-83
2021/09/06 02:52:10;;;;;;;5.75;3.83;;;;;;;12.80;50.05;102230.30;1677910;85;21714;-81
2021/09/06 02:54:36;;;;;;;7.42;4.15;;;;;;;12.82;49.96;102228.94;1654583;85;20986;-86
2021/09/06 02:57:04;;;;;;;5.53;3.83;;;;;;;12.83;49.85;102232.74;1677720;85;21111;-82
2021/09/06 02:59:31;;;;;;;6.03;3.75;;;;;;;12.85;49.86;102231.38;1678221;85;20949;-83
2021/09/06 03:01:58;;;;;;;7.70;4.05;;;;;;;12.86;49.87;102235.68;1677984;85;20994;-85
2021/09/06 03:04:25;;;;;;;7.92;3.72;;;;;;;12.87;49.68;102238.65;1677879;85;21077;-87
2021/09/06 03:06:53;;;;;;;6.65;3.83;;;;;;;12.86;49.65;102234.38;1677875;85;21088;-85
2021/09/06 03:09:21;;;;;;;5.90;3.37;;;;;;;12.85;49.60;102237.44;1677863;85;21150;-86
2021/09/06 03:11:48;;;;;;;6.30;3.60;;;;;;;12.86;49.56;102241.70;1654364;85;20950;-83
2021/09/06 03:14:14;;;;;;;13.35;3.75;;;;;;;12.84;49.57;102241.41;1677760;85;20962;-84
2021/09/06 03:16:42;;;;;;;8.53;3.90;;;;;;;12.82;49.65;102248.02;1677880;85;21589;-83
2021/09/06 03:19:08;;;;;;;5.22;3.52;;;;;;;12.81;49.71;102247.63;1654260;85;21124;-86
2021/09/06 03:21:40;;;;;;;6.25;3.02;;;;;;;12.78;49.71;102249.53;1677407;85;21485;-84
2021/09/06 03:24:08;;;;;;;5.67;3.70;;;;;;;12.76;49.67;102249.63;1677554;85;21075;-84
2021/09/06 03:26:37;;;;;;;5.95;3.58;;;;;;;12.73;49.85;102253.20;1677589;85;21437;-85
2021/09/06 03:29:05;;;;;;;6.80;4.15;;;;;;;12.71;49.75;102258.11;1677870;85;21556;-83
2021/09/06 03:31:33;;;;;;;6.08;3.42;;;;;;;12.69;49.76;102257.36;1677905;85;20954;-84
2021/09/06 03:34:00;;;;;;;6.28;3.15;;;;;;;12.66;49.71;102260.96;1678015;85;21214;-84
2021/09/06 03:36:26;;;;;;;12.20;3.98;;;;;;;12.63;49.87;102262.88;1677893;85;21429;-84
2021/09/06 03:38:55;;;;;;;6.22;3.60;;;;;;;12.58;50.02;102262.23;1677978;85;21503;-85
2021/09/06 03:41:24;;;;;;;8.60;3.33;;;;;;;12.54;50.09;102261.53;1677458;83;20930;-86
2021/09/06 03:43:51;;;;;;;5.62;3.42;;;;;;;12.51;50.18;102264.74;1670454;86;21473;-84
2021/09/06 03:46:18;;;;;;;5.10;3.70;;;;;;;12.49;50.28;102263.53;1670399;85;21104;-87
2021/09/06 03:48:48;;;;;;;8.70;3.62;;;;;;;12.47;50.40;102266.69;1670692;85;21453;-85
2021/09/06 03:51:14;;;;;;;5.58;3.05;;;;;;;12.45;50.42;102274.16;1670558;86;21030;-85
2021/09/06 03:53:41;;;;;;;10.68;4.20;;;;;;;12.43;50.47;102276.00;1670315;86;21093;-86
2021/09/06 03:56:09;;;;;;;6.45;3.37;;;;;;;12.41;50.63;102277.36;1670456;86;21009;-88
2021/09/06 03:58:37;;;;;;;5.95;3.72;;;;;;;12.38;50.76;102276.21;1670824;86;21158;-85
2021/09/06 04:01:04;;;;;;;11.38;3.50;;;;;;;12.38;50.80;102270.19;1670507;86;21565;-83
2021/09/06 04:03:32;;;;;;;12.03;3.20;;;;;;;12.38;50.80;102271.48;1670555;86;21018;-83
2021/09/06 04:06:00;;;;;;;6.72;3.45;;;;;;;12.37;50.85;102271.95;1670411;86;21544;-84
2021/09/06 04:08:27;;;;;;;7.95;3.37;;;;;;;12.38;50.93;102274.91;1670431;85;21013;-84
2021/09/06 04:10:54;;;;;;;9.23;4.40;;;;;;;12.39;50.90;102273.16;1670546;86;21088;-84
2021/09/06 04:13:23;;;;;;;9.75;3.72;;;;;;;12.40;50.99;102280.91;1670380;85;20963;-83
2021/09/06 04:15:54;;;;;;;8.65;3.75;;;;;;;12.43;50.97;102279.45;1670634;85;20954;-83
2021/09/06 04:18:23;;;;;;;9.98;3.67;;;;;;;12.45;51.04;102278.91;1651384;86;21587;-85
2021/09/06 04:20:50;;;;;;;7.60;3.55;;;;;;;12.49;50.96;102283.06;1670832;86;21001;-84
2021/09/06 04:23:18;;;;;;;6.45;4.10;;;;;;;12.53;50.95;102288.52;1670792;85;21188;-83
2021/09/06 04:25:45;;;;;;;7.33;3.40;;;;;;;12.58;50.78;102290.42;1670559;86;20994;-85
2021/09/06 04:28:11;;;;;;;7.80;3.98;;;;;;;12.63;50.77;102291.06;1670441;86;21100;-84
2021/09/06 04:30:38;;;;;;;5.62;3.55;;;;;;;12.70;50.65;102291.58;1670822;86;20980;-84
2021/09/06 04:33:05;;;;;;;8.40;3.45;;;;;;;12.74;50.63;102292.67;1670453;86;20935;-86
2021/09/06 04:35:32;;;;;;;8.15;3.35;;;;;;;12.81;50.42;102296.27;1670444;86;21195;-84
2021/09/06 04:37:59;;;;;;;6.30;3.15;;;;;;;12.87;50.35;102295.97;1670759;86;20966;-83
2021/09/06 04:40:28;;;;;;;9.80;3.52;;;;;;;12.94;50.30;102298.66;1670603;86;20989;-83
2021/09/06 04:42:55;;;;;;;6.33;3.20;;;;;;;13.01;50.21;102299.59;1670503;85;21521;-83
2021/09/06 04:45:23;;;;;;;11.30;4.22;;;;;;;13.07;50.12;102302.34;1670567;85;20974;-83
2021/09/06 04:47:50;;;;;;;8.93;3.50;;;;;;;13.13;50.11;102309.42;1670686;86;21211;-83
2021/09/06 04:50:17;;;;;;;9.90;2.98;;;;;;;13.19;50.06;102303.90;1670041;85;20895;-82
2021/09/06 04:52:44;;;;;;;8.78;3.47;;;;;;;13.23;49.71;102304.13;1671006;86;21010;-85
2021/09/06 04:55:13;;;;;;;15.38;3.42;;;;;;;13.28;49.51;102303.88;1670710;86;21497;-83
2021/09/06 04:57:42;;;;;;;18.27;4.75;;;;;;;13.33;49.37;102301.90;1670859;86;21089;-84
2021/09/06 05:00:10;;;;;;;22.85;4.62;;;;;;;13.37;49.52;102302.59;1670386;85;21176;-85
2021/09/06 05:02:37;;;;;;;9.63;3.65;;;;;;;13.41;49.34;102298.42;1670425;86;20986;-81
2021/09/06 05:05:05;;;;;;;11.28;3.60;;;;;;;13.44;49.38;102298.26;1670593;86;20950;-82
2021/09/06 05:07:33;;;;;;;13.98;3.77;;;;;;;13.49;49.24;102308.47;1670649;85;21549;-81
2021/09/06 05:10:01;;;;;;;7.80;4.17;;;;;;;13.53;49.32;102304.78;1670626;86;21434;-90
2021/09/06 05:12:30;;;;;;;15.53;3.52;;;;;;;13.55;49.24;102311.59;1670567;85;21137;-85
2021/09/06 05:14:59;;;;;;;8.45;3.15;;;;;;;13.60;49.11;102306.12;1670397;85;21389;-82
2021/09/06 05:17:26;;;;;;;15.28;4.87;;;;;;;13.65;48.98;102314.56;1670696;85;21067;-84
2021/09/06 05:19:53;;;;;;;7.50;3.30;;;;;;;13.68;48.67;102315.71;1670772;85;20987;-83
2021/09/06 05:22:20;;;;;;;13.18;4.03;;;;;;;13.72;48.75;102322.45;1670708;85;21038;-82
2021/09/06 05:24:47;;;;;;;8.43;3.58;;;;;;;13.77;48.52;102319.98;1672374;85;21120;-82
2021/09/06 05:27:15;;;;;;;9.58;4.90;;;;;;;13.82;48.38;102322.78;1671629;85;21556;-83
2021/09/06 05:29:41;;;;;;;15.25;7.00;;;;;;;13.87;48.16;102319.48;1671120;85;20985;-83
2021/09/06 05:32:09;;;;;;;10.15;5.60;;;;;;;13.92;47.97;102324.83;1670435;85;21567;-81
2021/09/06 05:34:40;;;;;;;11.57;5.42;;;;;;;13.98;48.13;102327.11;1669835;85;20951;-83
2021/09/06 05:37:18;;;;;;;13.18;4.03;;;;;;;14.06;48.16;102325.41;1672032;85;21018;-80
2021/09/06 05:39:44;;;;;;;7.72;3.67;;;;;;;14.15;48.00;102326.20;1670981;85;21017;-83
2021/09/06 05:42:13;;;;;;;11.90;3.22;;;;;;;14.25;47.55;102323.48;1670213;83;21057;-84
2021/09/06 05:44:49;;;;;;;11.55;3.70;;;;;;;14.37;47.43;102329.35;1678425;84;21045;-84
2021/09/06 05:47:15;;;;;;;9.83;3.87;;;;;;;14.49;47.22;102327.36;1678097;84;22441;-82
2021/09/06 05:49:43;;;;;;;7.72;3.45;;;;;;;14.64;47.12;102330.90;1678449;84;21156;-82
2021/09/06 05:52:11;;;;;;;7.97;3.60;;;;;;;14.81;46.47;102329.45;1653800;85;21081;-82
2021/09/06 05:54:39;;;;;;;16.20;3.70;;;;;;;14.97;46.11;102331.56;1677930;84;20914;-87
2021/09/06 05:57:09;;;;;;;7.80;3.72;;;;;;;15.17;45.94;102335.18;1676918;84;21061;-85
2021/09/06 05:59:38;;;;;;;9.00;3.47;;;;;;;15.37;45.20;102330.09;1663435;82;21168;-82
2021/09/06 06:02:05;;;;;;;17.30;4.53;;;;;;;15.59;44.79;102338.83;1698376;83;21148;-84
2021/09/06 06:04:32;;;;;;;13.13;3.55;;;;;;;15.78;44.87;102340.23;1705803;83;21050;-83
2021/09/06 06:07:01;;;;;;;9.18;3.45;;;;;;;15.99;44.44;102335.90;1705707;83;21579;-84
2021/09/06 06:13:00;;;;;;;6.33;3.70;;;;;;;16.34;43.16;102339.30;1734845;82;20947;-86
2021/09/06 06:15:30;;;;;;;5.78;3.52;;;;;;;16.56;42.74;102334.86;1726380;82;21103;-85
2021/09/06 06:17:57;;;;;;;6.62;3.67;;;;;;;16.68;42.39;102335.41;1690466;84;21509;-85
2021/09/06 06:20:25;;;;;;;13.98;4.03;;;;;;;16.80;42.54;102337.22;1677919;84;21057;-87
2021/09/06 06:23:08;;;;;;;9.33;3.27;;;;;;;16.93;42.45;102338.56;1627902;83;21033;-87
2021/09/06 06:25:48;;;;;;;14.23;4.58;;;;;;;17.03;41.87;102340.11;1692899;83;21081;-86
2021/09/06 06:28:18;;;;;;;9.90;3.80;;;;;;;17.11;40.95;102347.83;1704772;83;21844;-89
2021/09/06 06:30:49;;;;;;;6.47;3.62;;;;;;;17.14;40.74;102341.53;1681156;83;21666;-84
2021/09/06 06:33:18;;;;;;;17.48;6.87;;;;;;;17.16;40.71;102344.44;1704436;83;21614;-87
2021/09/06 06:35:49;;;;;;;25.23;12.18;;;;;;;17.22;41.09;102348.43;1704994;83;21025;-85
2021/09/06 06:38:19;;;;;;;25.82;11.30;;;;;;;17.28;40.88;102349.33;1705526;83;21033;-83
2021/09/06 06:40:51;;;;;;;27.50;9.60;;;;;;;17.34;40.84;102348.44;1704818;82;21775;-84
2021/09/06 06:43:19;;;;;;;21.10;8.90;;;;;;;17.43;40.60;102345.66;1704521;82;21109;-83
2021/09/06 06:45:47;;;;;;;17.02;7.85;;;;;;;17.53;40.54;102348.49;1705366;83;21113;-83
2021/09/06 06:48:18;;;;;;;26.90;7.25;;;;;;;17.60;40.33;102349.33;1704884;82;21563;-88
2021/09/06 06:50:47;;;;;;;27.17;7.95;;;;;;;17.69;39.95;102353.94;1704548;83;21145;-86
2021/09/06 06:53:16;;;;;;;55.10;10.45;;;;;;;17.79;39.74;102351.52;1704186;83;21157;-82
2021/09/06 06:55:43;;;;;;;25.77;6.40;;;;;;;17.88;39.69;102356.97;1680608;84;21065;-82
2021/09/06 06:58:11;;;;;;;24.02;5.65;;;;;;;17.94;39.62;102360.48;1704599;83;21101;-84
2021/09/06 07:00:38;;;;;;;15.13;4.85;;;;;;;17.97;38.63;102362.89;1704645;83;20998;-82
2021/09/06 07:03:04;;;;;;;15.90;3.77;;;;;;;17.98;38.61;102368.52;1704890;83;21057;-82
2021/09/06 07:05:33;;;;;;;10.38;3.65;;;;;;;17.99;38.31;102369.36;1705115;84;21159;-88
2021/09/06 07:08:01;;;;;;;13.38;4.30;;;;;;;18.02;38.01;102370.45;1704874;83;21148;-84
2021/09/06 07:10:29;;;;;;;12.07;4.83;;;;;;;18.05;37.80;102374.65;1723877;82;21124;-87
2021/09/06 07:12:57;;;;;;;11.03;4.03;;;;;;;18.06;37.68;102378.47;1704204;82;21582;-83
2021/09/06 07:15:33;;;;;;;8.75;2.77;;;;;;;18.09;37.37;102380.06;1704352;82;21744;-88
2021/09/06 07:18:04;;;;;;;12.88;3.90;;;;;;;18.15;37.53;102384.41;1704469;83;21318;-82
2021/09/06 07:20:36;;;;;;;11.05;3.17;;;;;;;18.26;37.81;102388.42;1704145;82;21069;-86
2021/09/06 07:23:05;;;;;;;;;;;;;;;18.39;37.55;102389.23;1679041;84;21551;-82
2021/09/06 07:25:36;;;;;;;15.30;4.57;;;;;;;18.48;37.54;102387.72;1676541;84;20246;-83
2021/09/06 07:28:05;;;;;;;14.00;3.87;;;;;;;18.56;37.21;102393.31;1675989;84;21077;-84
2021/09/06 07:30:32;;;;;;;18.23;4.45;;;;;;;18.65;37.27;102387.86;1682485;84;22011;-86
2021/09/06 07:33:06;;;;;;;6.53;3.83;;;;;;;18.74;37.63;102388.03;1688703;84;21064;-85
2021/09/06 07:35:34;;;;;;;7.95;2.52;;;;;;;18.83;37.22;102383.41;1725180;82;32483;-88
2021/09/06 07:38:04;;;;;;;11.05;3.00;;;;;;;18.91;37.00;102381.06;1731902;82;21607;-83
2021/09/06 07:40:33;;;;;;;6.42;2.95;;;;;;;19.00;37.20;102385.64;1640381;85;21179;-84
2021/09/06 07:43:08;;;;;;;6.70;3.22;;;;;;;19.09;37.55;102385.89;1675458;83;21165;-88
2021/09/06 07:45:36;;;;;;;6.47;2.33;;;;;;;19.19;37.94;102384.27;1689662;84;21218;-82
2021/09/06 07:48:07;;;;;;;4.97;2.00;;;;;;;19.28;37.59;102387.04;1700650;83;21588;-88
2021/09/06 07:50:39;;;;;;;6.05;2.75;;;;;;;19.32;37.41;102387.18;1725714;82;21556;-86
2021/09/06 07:53:09;;;;;;;5.25;2.50;;;;;;;19.35;37.89;102393.53;1713357;83;20983;-89
2021/09/06 07:55:39;;;;;;;;;;;;;;;19.43;37.99;102390.36;1698438;84;21093;-83
2021/09/06 07:58:07;;;;;;;8.18;2.52;;;;;;;19.49;37.43;102395.16;1695454;84;20204;-84
2021/09/06 08:00:36;;;;;;;7.08;2.98;;;;;;;19.47;37.04;102386.05;1695720;84;21007;-86
2021/09/06 08:03:25;;;;;;;7.28;2.60;;;;;;;19.48;36.93;102390.36;1695886;84;21022;-92
2021/09/06 08:05:54;;;;;;;6.22;2.75;;;;;;;19.52;36.73;102393.13;1695599;83;21078;-80
2021/09/06 08:08:21;;;;;;;5.72;2.35;;;;;;;19.58;36.29;102390.97;1677485;84;21327;-84
2021/09/06 08:10:53;;;;;;;8.93;2.58;;;;;;;19.66;35.25;102399.11;1696661;84;21017;-83
2021/09/06 08:13:25;;;;;;;6.22;2.90;;;;;;;19.70;35.64;102396.14;1696956;84;21049;-88
2021/09/06 08:15:56;;;;;;;3.37;2.50;;;;;;;19.73;35.22;102395.90;1696384;83;21082;-87
2021/09/06 08:18:23;;;;;;;14.35;2.47;;;;;;;19.72;34.90;102396.03;1696787;84;21086;-83
2021/09/06 08:20:50;;;;;;;4.87;2.90;;;;;;;19.75;34.52;102396.61;1696777;84;21142;-82
2021/09/06 08:23:18;;;;;;;5.78;1.80;;;;;;;19.79;33.92;102392.79;1689039;84;21089;-81
2021/09/06 08:25:50;;;;;;;4.33;2.20;;;;;;;19.82;33.57;102396.97;1721609;83;21065;-84
2021/09/06 08:28:22;;;;;;;4.33;2.50;;;;;;;19.84;33.27;102395.92;1669106;85;21133;-82
2021/09/06 08:30:49;;;;;;;11.33;2.83;;;;;;;19.89;32.98;102391.12;1672221;85;21711;-85
2021/09/06 08:33:16;;;;;;;6.55;2.27;;;;;;;20.00;32.28;102391.61;1668798;85;21162;-83
2021/09/06 08:35:45;;;;;;;4.33;2.55;;;;;;;20.10;32.43;102390.41;1649331;85;21776;-81
2021/09/06 08:38:14;;;;;;;7.35;2.37;;;;;;;20.20;32.33;102384.27;1649577;85;21576;-83
2021/09/06 08:40:44;;;;;;;5.37;2.47;;;;;;;20.32;31.77;102379.88;1672075;85;21101;-82
2021/09/06 08:43:13;;;;;;;7.28;2.55;;;;;;;20.43;31.87;102383.31;1647043;86;21631;-83
2021/09/06 08:45:43;;;;;;;10.72;2.92;;;;;;;20.54;32.24;102382.46;1679315;82;21866;-79
2021/09/06 08:48:11;;;;;;;10.50;2.92;;;;;;;20.55;32.16;102388.91;1708429;82;21118;-82
2021/09/06 08:50:42;;;;;;;5.22;2.30;;;;;;;20.49;32.04;102392.05;1716263;82;21006;-79
2021/09/06 08:53:09;;;;;;;4.20;2.23;;;;;;;20.48;32.40;102388.23;1739823;82;21049;-79
2021/09/06 08:55:40;;;;;;;8.78;2.25;;;;;;;20.44;31.91;102386.31;1739445;82;21079;-80
2021/09/06 08:58:07;;;;;;;3.27;2.37;;;;;;;20.43;32.21;102387.27;1739427;81;21206;-83
2021/09/06 09:00:34;;;;;;;7.05;2.37;;;;;;;20.48;32.18;102391.71;1716289;82;21069;-81
2021/09/06 09:03:20;;;;;;;7.97;3.00;;;;;;;20.55;32.46;102391.55;1739707;82;21556;-84
2021/09/06 09:06:00;;;;;;;5.25;4.03;;;;;;;20.60;32.48;102383.28;1738098;82;21198;-81
2021/09/06 09:08:40;;;;;;;4.53;3.05;;;;;;;20.61;32.68;102381.48;1682941;82;21140;-81
2021/09/06 09:11:11;;;;;;;3.60;1.97;;;;;;;20.59;32.38;102381.12;1739197;82;21320;-82
2021/09/06 09:14:13;;;;;;;8.68;2.87;;;;;;;20.63;32.30;102379.07;1739632;82;20985;-81
2021/09/06 09:16:58;;;;;;;2.85;2.30;;;;;;;20.74;32.42;102372.93;1736187;82;21009;-81
2021/09/06 09:19:43;;;;;;;3.00;2.10;;;;;;;20.86;32.44;102372.76;1733656;82;21116;-88
2021/09/06 09:22:35;;;;;;;5.10;2.42;;;;;;;21.00;32.08;102371.59;1695447;82;21128;-80
2021/09/06 09:25:09;;;;;;;5.53;2.47;;;;;;;21.12;31.63;102368.00;1705185;83;21294;-79
2021/09/06 09:27:57;;;;;;;7.33;2.62;;;;;;;21.27;31.30;102360.10;1688473;82;21124;-81
2021/09/06 09:30:29;;;;;;;6.28;2.42;;;;;;;21.40;31.53;102363.86;1738576;82;21073;-79
2021/09/06 09:33:10;;;;;;;5.33;2.42;;;;;;;21.53;30.80;102368.45;1738074;81;21591;-84
2021/09/06 09:35:58;;;;;;;4.65;2.45;;;;;;;21.65;30.75;102363.44;1736930;81;21073;-82
2021/09/06 09:38:34;;;;;;;4.15;2.33;;;;;;;21.74;30.47;102368.41;1739524;82;21153;-88
2021/09/06 09:41:12;;;;;;;8.68;2.80;;;;;;;21.80;30.43;102369.20;1707149;82;21084;-82
2021/09/06 09:43:42;;;;;;;4.30;2.40;;;;;;;21.81;30.62;102372.20;1687239;82;21140;-81
2021/09/06 09:46:11;;;;;;;5.10;2.40;;;;;;;21.99;30.38;102370.62;1688667;84;21257;-81
2021/09/06 09:48:43;;;;;;;;;;;;;;;23.06;29.45;102366.22;1677241;85;21576;-80
2021/09/06 09:51:12;;;;;;;8.48;2.92;;;;;;;24.49;26.52;102367.17;1676329;85;21807;-83
2021/09/06 09:53:40;;;;;;;5.58;2.40;;;;;;;25.60;25.54;102352.81;1676225;84;21124;-84
2021/09/06 09:56:17;;;;;;;9.05;2.40;;;;;;;26.80;24.19;102351.54;1663145;84;21025;-79
2021/09/06 09:58:46;;;;;;;3.85;2.10;;;;;;;28.13;22.51;102349.94;1698230;82;21117;-80
2021/09/06 10:01:18;;;;;;;5.55;2.80;;;;;;;29.28;21.41;102350.25;1675837;84;21109;-84
2021/09/06 10:03:52;;;;;;;11.90;2.87;;;;;;;30.13;20.54;102344.70;1704365;83;21175;-81
2021/09/06 10:06:21;;;;;;;;;;;;;;;30.87;19.87;102344.75;1706156;83;21057;-81
2021/09/06 10:08:50;;;;;;;2.30;2.10;;;;;;;31.59;19.28;102351.69;1703233;83;20176;-79
2021/09/06 10:11:18;;;;;;;11.38;2.70;;;;;;;32.34;17.68;102341.65;1704235;84;21081;-86
2021/09/06 10:13:49;;;;;;;9.55;2.67;;;;;;;33.28;16.96;102334.77;1699962;83;21052;-81
2021/09/06 10:16:22;;;;;;;3.95;2.37;;;;;;;33.92;16.67;102336.91;1704563;84;21146;-80
2021/09/06 10:18:51;;;;;;;6.87;2.17;;;;;;;34.86;15.66;102332.07;1701267;84;21056;-80
2021/09/06 10:21:22;;;;;;;4.55;2.25;;;;;;;35.49;14.90;102330.80;1704552;84;20997;-79
2021/09/06 10:23:52;;;;;;;3.60;2.20;;;;;;;35.53;15.06;102329.83;1691603;82;26819;-83
2021/09/06 10:26:20;;;;;;;4.45;3.15;;;;;;;35.29;14.74;102332.92;1733843;82;21101;-83
2021/09/06 10:28:49;;;;;;;4.33;2.27;;;;;;;34.69;14.73;102336.36;1733914;82;21173;-81
2021/09/06 10:31:22;;;;;;;5.12;2.67;;;;;;;34.21;14.92;102336.89;1733929;82;21034;-79
2021/09/06 10:33:59;;;;;;;5.90;2.52;;;;;;;33.36;15.61;102328.63;1693067;82;21049;-78
2021/09/06 10:36:26;;;;;;;4.35;2.22;;;;;;;32.21;16.22;102331.38;1701093;82;21597;-83
2021/09/06 10:39:09;;;;;;;9.58;2.80;;;;;;;31.06;17.00;102325.84;1676597;85;21043;-81
2021/09/06 10:41:46;;;;;;;8.18;3.55;;;;;;;30.15;18.17;102329.30;1676084;85;21166;-81
2021/09/06 10:44:14;;;;;;;8.50;3.40;;;;;;;29.31;19.08;102325.81;1691573;82;21001;-79
2021/09/06 10:46:58;;;;;;;6.03;4.40;;;;;;;28.57;20.01;102332.78;1703956;84;21595;-81
2021/09/06 10:49:27;;;;;;;5.72;2.95;;;;;;;27.90;20.51;102327.66;1703988;82;21151;-81
2021/09/06 10:51:57;;;;;;;3.58;2.90;;;;;;;27.11;20.90;102325.06;1704405;83;21101;-79
2021/09/06 10:54:29;;;;;;;4.97;3.10;;;;;;;26.27;21.59;102327.50;1679467;84;21239;-81
2021/09/06 10:56:58;;;;;;;4.30;2.85;;;;;;;25.67;21.95;102317.47;1704676;84;21073;-80
2021/09/06 10:59:26;;;;;;;8.75;3.50;;;;;;;25.00;23.29;102316.88;1679979;84;21052;-80
2021/09/06 11:01:57;;;;;;;5.17;2.92;;;;;;;24.69;24.41;102319.10;1709139;82;21026;-83
2021/09/06 11:04:30;;;;;;;7.95;2.50;;;;;;;24.58;24.59;102317.16;1705024;84;21520;-86
2021/09/06 11:07:04;;;;;;;5.80;2.62;;;;;;;24.48;24.44;102312.41;1704319;83;21600;-79
2021/09/06 11:09:35;;;;;;;6.20;2.60;;;;;;;24.50;23.82;102316.61;1704475;83;21112;-90
2021/09/06 11:12:11;;;;;;;3.50;2.40;;;;;;;24.49;24.70;102322.05;1678836;84;21156;-85
2021/09/06 11:14:46;;;;;;;7.85;3.02;;;;;;;24.20;23.58;102316.95;1704282;83;21567;-82
2021/09/06 11:17:23;;;;;;;4.67;2.65;;;;;;;23.94;23.97;102312.81;1704794;82;20993;-85
2021/09/06 11:19:56;;;;;;;5.87;2.35;;;;;;;24.00;24.29;102309.56;1696288;83;21823;-80
2021/09/06 11:22:27;;;;;;;5.67;2.60;;;;;;;24.31;24.14;102307.46;1678444;84;21713;-77
2021/09/06 11:25:03;;;;;;;10.15;3.25;;;;;;;24.54;24.17;102299.86;1675994;84;21211;-81
2021/09/06 11:27:34;;;;;;;6.08;2.70;;;;;;;24.70;24.34;102302.65;1675892;84;21097;-80
2021/09/06 11:30:05;;;;;;;8.93;3.75;;;;;;;25.20;24.00;102298.42;1676079;84;21080;-78
2021/09/06 11:32:34;;;;;;;3.58;2.80;;;;;;;25.97;23.05;102293.98;1676007;85;22049;-82
2021/09/06 11:35:07;;;;;;;6.85;2.75;;;;;;;26.12;22.50;102290.52;1691190;82;21053;-83
2021/09/06 11:37:37;;;;;;;4.40;2.65;;;;;;;25.70;23.04;102288.39;1703600;84;21702;-80
2021/09/06 11:40:05;;;;;;;5.10;2.77;;;;;;;25.35;23.50;102281.39;1704061;84;21141;-81